Latest Weather Observations for Camden

IDN60901

Issued at 9:41 am EDT Saturday 20 December 2014 (issued every 10 minutes, with the page automatically refreshed every 10 minutes)

About weather observations | Map of Sydney area stations | Latest observations for Sydney area | Other Formats
Station Details ID: 068192 Name: CAMDEN AIRPORT AWS Lat: -34.04 Lon: 150.69 Height: 73.9 m
Data from the previous 72 hours. | See also: Recent months at Camden
Date/Time
EDT
Tmp

°C
App
Tmp
°C
Dew
Point
°C
Rel
Hum
%
Delta-T

°C
Wind Press
QNH
hPa
Press
MSL
hPa
Rain
since
9 am
mm
Dir
 
Spd
km/h
Gust
km/h
Spd
kts
Gust
kts
20/09:30am 18.7 18.1 10.5 59 4.4 N 4 9 2 5 1018.8 1018.5 0.0
20/09:00am 18.8 18.0 10.9 60 4.3 E 6 9 3 5 1018.8 1018.5 0.0
20/08:30am 19.1 18.2 11.2 60 4.3 SE 7 9 4 5 1018.8 1018.5 0.0
20/08:00am 17.8 17.0 11.1 65 3.6 SE 6 9 3 5 1018.7 1018.4 0.0
20/07:30am 17.9 18.1 11.7 67 3.4 SW 2 9 1 5 1018.4 1018.1 0.0
20/07:00am 16.8 17.0 11.7 72 2.8 SSW 2 7 1 4 1018.1 1017.8 0.0
20/06:30am 16.2 17.0 12.4 78 2.1 CALM 0 0 0 0 1017.9 1017.6 0.0
20/05:30am 15.5 15.5 11.3 76 2.3 SE 2 6 1 3 1017.8 1017.5 0.0
20/05:00am 15.7 15.4 11.3 75 2.4 SE 4 7 2 4 1017.6 1017.3 0.0
20/04:30am 16.2 15.3 11.4 73 2.6 SE 7 9 4 5 1017.5 1017.2 0.0
20/04:00am 16.3 15.4 11.2 72 2.7 SSE 7 11 4 6 1017.4 1017.1 0.0
20/03:30am 16.4 15.0 10.9 70 3.0 SE 9 11 5 6 1017.4 1017.1 0.0
20/03:00am 16.7 15.6 10.8 68 3.2 SSE 7 9 4 5 1017.5 1017.2 0.0
20/02:30am 16.8 15.9 10.6 67 3.3 SE 6 7 3 4 1017.7 1017.4 0.0
20/02:00am 16.8 15.9 10.6 67 3.3 SE 6 7 3 4 1018.0 1017.7 0.0
20/01:30am 17.2 17.5 10.8 66 3.4 CALM 0 0 0 0 1018.2 1017.9 0.0
20/01:00am 17.4 17.6 10.5 64 3.7 CALM 0 0 0 0 1018.5 1018.2 0.0
20/12:30am 17.4 17.5 10.3 63 3.8 CALM 0 0 0 0 1018.8 1018.5 0.0
 
Date/Time
EDT
Tmp

°C
App
Tmp
°C
Dew
Point
°C
Rel
Hum
%
Delta-T

°C
Wind Press
QNH
hPa
Press
MSL
hPa
Rain
since
9 am
mm
Dir
 
Spd
km/h
Gust
km/h
Spd
kts
Gust
kts
19/11:30pm 17.7 16.6 10.1 61 4.0 SSE 6 9 3 5 1019.2 1018.9 0.0
19/11:00pm 17.9 16.2 10.0 60 4.2 SE 9 13 5 7 1019.2 1018.9 0.0
19/10:30pm 17.9 16.2 10.0 60 4.2 SE 9 15 5 8 1018.9 1018.6 0.0
19/10:00pm 17.7 16.6 10.1 61 4.0 SE 6 9 3 5 1018.7 1018.4 0.0
19/09:30pm 17.9 16.6 9.8 59 4.3 SE 7 11 4 6 1018.2 1017.9 0.0
19/09:00pm 17.9 16.1 9.5 58 4.4 SE 9 13 5 7 1018.0 1017.7 0.0
19/08:30pm 18.1 15.9 9.2 56 4.7 SE 11 17 6 9 1017.7 1017.4 0.0
19/08:00pm 18.2 15.1 8.7 54 4.9 SE 15 26 8 14 1017.2 1016.9 0.0
19/07:30pm 18.5 15.7 8.7 53 5.1 SE 13 20 7 11 1016.6 1016.3 0.0
19/07:00pm 18.9 15.9 9.1 53 5.1 ESE 15 22 8 12 1015.6 1015.3 0.0
19/06:30pm 19.5 16.5 9.4 52 5.4 ESE 15 24 8 13 1014.8 1014.6 0.0
19/05:30pm 21.6 18.4 10.1 48 6.3 SSE 17 26 9 14 1013.5 1013.3 0.0
19/05:00pm 21.6 18.4 9.8 47 6.4 SSE 17 26 9 14 1013.1 1012.9 0.0
19/04:30pm 22.6 20.2 11.4 49 6.3 SE 15 26 8 14 1013.0 1012.8 0.0
19/04:00pm 20.7 16.9 9.0 47 6.2 SE 19 30 10 16 1013.0 1012.8 0.0
19/03:30pm 22.9 19.7 10.0 44 7.1 SE 17 32 9 17 1012.7 1012.4 0.0
19/03:00pm 22.1 19.0 10.3 47 6.5 ESE 17 24 9 13 1012.5 1012.2 0.0
19/02:30pm 22.9 19.8 10.3 45 6.9 ESE 17 24 9 13 1012.4 1012.1 0.0
19/02:00pm 23.0 19.9 10.4 45 6.9 ESE 17 24 9 13 1012.5 1012.2 0.0
19/01:30pm 23.1 20.0 11.5 48 6.5 ESE 19 26 10 14 1012.6 1012.3 0.0
19/01:00pm 23.6 21.6 12.6 50 6.3 E 15 22 8 12 1012.6 1012.3 0.0
19/12:30pm 22.8 19.5 10.9 47 6.6 ESE 19 28 10 15 1012.7 1012.4 0.0
19/12:00pm 24.6 21.7 12.2 46 7.1 ESE 19 28 10 15 1012.7 1012.4 0.0
19/11:30am 23.5 20.5 11.9 48 6.6 ENE 19 28 10 15 1012.6 1012.3 0.0
19/11:00am 23.2 21.4 9.6 42 7.4 SSE 9 15 5 8 1012.6 1012.3 0.0
19/10:30am 22.8 21.3 10.6 46 6.7 ESE 9 22 5 12 1012.7 1012.4 0.0
19/10:00am 21.9 20.4 10.7 49 6.2 S 9 17 5 9 1012.8 1012.5 0.0
19/09:30am 21.3 19.8 11.9 55 5.3 S 11 19 6 10 1012.8 1012.5 0.0
19/09:00am 20.6 18.5 11.2 55 5.2 S 13 24 7 13 1012.8 1012.5 0.2
19/08:30am 19.7 17.6 11.2 58 4.7 S 13 17 7 9 1012.7 1012.4 0.2
19/08:00am 18.8 16.8 11.4 62 4.1 S 13 20 7 11 1012.5 1012.2 0.2
19/07:30am 18.1 16.9 11.7 66 3.5 S 9 19 5 10 1012.2 1011.9 0.0
19/07:00am 17.3 16.5 12.8 75 2.5 S 9 13 5 7 1011.7 1011.4 0.0
19/06:30am 16.5 15.8 13.2 81 1.9 S 9 13 5 7 1011.2 1010.9 0.0
19/06:00am 15.6 15.1 12.7 83 1.6 S 7 9 4 5 1010.6 1010.3 0.0
19/05:30am 16.0 14.9 13.1 83 1.6 S 11 15 6 8 1010.1 1009.8 0.0
19/05:00am 16.8 15.6 13.9 83 1.7 SSE 13 22 7 12 1009.5 1009.2 0.0
19/04:30am 15.4 16.3 14.1 92 0.7 NW 2 6 1 3 1008.5 1008.2 0.0
19/04:10am 15.8 16.2 14.7 93 0.6 N 6 7 3 4 1008.1 1007.8 0.0
19/04:00am 16.2 17.3 15.6 96 0.4 N 4 7 2 4 1008.1 1007.8 0.0
19/03:39am 15.9 16.0 14.4 91 0.9 WNW 7 11 4 6 1007.8 1007.5 0.0
19/03:30am 16.5 17.9 15.5 94 0.6 W 2 7 1 4 1007.7 1007.4 0.0
19/03:09am 16.9 18.0 16.7 99 0.1 SSW 6 7 3 4 1007.7 1007.4 0.0
19/03:00am 17.2 18.3 17.0 99 0.1 SSW 7 9 4 5 1007.6 1007.3 0.0
19/02:30am 16.8 19.0 16.6 99 0.1 CALM 0 0 0 0 1007.3 1007.0 0.0
19/02:29am 16.9 19.2 16.7 99 0.1 CALM 0 0 0 0 1007.3 1007.0 0.0
19/02:00am 16.7 18.8 16.2 97 0.3 CALM 0 0 0 0 1006.9 1006.6 0.0
19/01:30am 17.6 20.0 17.1 97 0.3 CALM 0 0 0 0 1006.9 1006.6 0.0
19/01:00am 17.6 20.0 17.0 96 0.4 CALM 0 0 0 0 1006.9 1006.6 0.0
19/12:42am 17.9 20.3 17.1 95 0.5 CALM 0 0 0 0 1006.9 1006.6 0.0
19/12:30am 18.3 20.9 17.5 95 0.5 CALM 0 0 0 0 1006.9 1006.6 0.0
19/12:28am 18.4 21.0 17.6 95 0.5 CALM 0 0 0 0 1006.9 1006.6 0.0
19/12:14am 18.4 21.0 17.4 94 0.6 CALM 0 0 0 0 1006.9 1006.6 0.0
19/12:08am 18.4 21.0 17.4 94 0.6 CALM 0 0 0 0 1006.8 1006.5 0.0
19/12:00am 18.7 21.5 17.9 95 0.5 CALM 0 0 0 0 1006.9 1006.6 0.0
 
Date/Time
EDT
Tmp

°C
App
Tmp
°C
Dew
Point
°C
Rel
Hum
%
Delta-T

°C
Wind Press
QNH
hPa
Press
MSL
hPa
Rain
since
9 am
mm
Dir
 
Spd
km/h
Gust
km/h
Spd
kts
Gust
kts
18/11:59pm 18.6 21.3 17.8 95 0.5 CALM 0 0 0 0 1006.9 1006.6 0.0
18/11:30pm 19.3 21.9 17.6 90 1.0 CALM 0 0 0 0 1006.9 1006.6 0.0
18/11:27pm 19.3 21.9 17.6 90 1.0 CALM 0 0 0 0 1006.9 1006.6 0.0
18/11:23pm 19.4 22.1 17.7 90 1.0 CALM 0 0 0 0 1006.9 1006.6 0.0
18/11:13pm 19.5 22.2 17.8 90 1.0 CALM 0 0 0 0 1006.9 1006.6 0.0
18/11:00pm 19.6 22.4 17.9 90 1.1 CALM 0 0 0 0 1006.9 1006.6 0.0
18/10:30pm 20.0 22.7 17.8 87 1.4 CALM 0 0 0 0 1006.9 1006.6 0.0
18/10:00pm 21.0 24.0 18.4 85 1.6 CALM 0 0 0 0 1006.7 1006.4 0.0
18/09:30pm 21.7 24.8 18.7 83 1.9 CALM 0 0 0 0 1006.5 1006.2 0.0
18/09:00pm 22.4 24.2 18.4 78 2.5 E 6 9 3 5 1006.2 1005.9 0.0
18/08:30pm 23.1 24.0 18.4 75 3.0 ENE 11 15 6 8 1005.8 1005.5 0.0
18/08:00pm 24.0 24.5 18.4 71 3.6 ENE 13 19 7 10 1005.5 1005.2 0.0
18/07:30pm 25.1 25.1 18.1 65 4.4 ENE 15 20 8 11 1005.1 1004.8 0.0
18/07:00pm 26.2 26.2 17.3 58 5.6 ENE 13 17 7 9 1004.5 1004.2 0.0
18/06:30pm 27.1 27.8 17.0 54 6.3 ENE 9 15 5 8 1004.1 1003.8 0.0
18/06:00pm 27.5 28.1 16.8 52 6.7 N 9 13 5 7 1003.8 1003.5 0.0
18/05:30pm 27.5 27.7 16.8 52 6.7 ENE 11 15 6 8 1003.7 1003.4 0.0
18/05:00pm 27.7 27.6 16.9 51 6.8 E 13 20 7 11 1003.6 1003.3 0.0
18/04:30pm 26.8 26.5 16.4 53 6.4 NE 13 20 7 11 1004.1 1003.8 0.0
18/04:00pm 27.5 27.0 16.8 52 6.7 NE 15 26 8 14 1004.4 1004.1 0.0
18/03:30pm 26.5 25.6 15.8 51 6.6 NNE 15 22 8 12 1004.8 1004.5 0.0
18/03:00pm 26.9 26.1 16.2 52 6.6 NNE 15 24 8 13 1005.2 1004.9 0.0
18/02:30pm 26.9 26.1 17.1 55 6.1 NNE 17 24 9 13 1005.6 1005.3 0.0
18/02:00pm 25.7 24.4 16.8 58 5.5 N 19 26 10 14 1006.1 1005.8 0.0
18/01:30pm 25.8 25.9 16.4 56 5.8 NNE 11 19 6 10 1006.3 1006.0 0.0
18/01:00pm 24.1 23.6 15.9 60 5.0 N 13 22 7 12 1006.9 1006.6 0.0
18/12:30pm 24.1 23.9 16.6 63 4.6 N 13 20 7 11 1007.5 1007.2 0.0
18/12:00pm 23.3 23.9 16.8 67 4.0 N 9 17 5 9 1008.0 1007.7 0.0
18/11:30am 21.9 21.9 15.3 66 3.9 NE 9 13 5 7 1008.5 1008.2 0.0
18/11:04am 21.9 22.5 15.3 66 3.9 ENE 6 9 3 5 1008.9 1008.6 0.0
18/11:00am 21.5 22.5 15.3 68 3.7 NNE 4 9 2 5 1009.0 1008.7 0.0
18/10:51am 21.4 21.8 15.3 68 3.6 NNE 7 11 4 6 1009.2 1008.9 0.0
18/10:42am 21.0 21.5 15.1 69 3.5 NNE 6 9 3 5 1009.4 1009.1 0.0
18/10:30am 21.1 21.5 15.2 69 3.5 NNW 7 11 4 6 1009.6 1009.3 0.0
18/10:13am 20.9 21.8 15.2 70 3.4 N 4 7 2 4 1010.0 1009.7 0.0
18/10:00am 20.1 20.8 14.5 70 3.3 NW 4 7 2 4 1010.1 1009.8 0.0
18/09:30am 18.6 19.9 15.1 80 2.1 WNW 2 7 1 4 1010.5 1010.2 0.0
18/09:26am 18.4 20.1 15.1 81 1.9 CALM 0 0 0 0 1010.5 1010.2 0.0
18/09:11am 17.9 19.5 14.8 82 1.8 CALM 0 0 0 0 1010.7 1010.4 0.0
18/09:00am 17.7 19.3 15.0 84 1.6 CALM 0 6 0 3 1010.6 1010.3 -
18/08:30am 17.1 17.2 15.4 90 1.0 S 9 11 5 6 1010.7 1010.4 -
18/08:00am 16.5 17.1 15.2 92 0.8 S 6 7 3 4 1010.9 1010.6 -
18/07:59am 16.5 17.1 15.2 92 0.8 S 6 7 3 4 1010.9 1010.6 -
18/07:49am 16.4 17.0 15.3 93 0.6 WSW 6 7 3 4 1011.0 1010.7 -
18/07:30am 16.2 16.7 15.1 93 0.6 WSW 6 9 3 5 1011.2 1010.9 -
18/07:01am 16.1 17.2 14.6 91 0.9 W 2 6 1 3 1010.7 1010.4 -
18/07:00am 16.1 17.2 14.6 91 0.9 W 2 6 1 3 1010.7 1010.4 -
18/06:30am 16.1 17.5 14.5 90 0.9 CALM 0 0 0 0 1010.3 1010.0 -
18/06:00am 16.2 17.5 14.2 88 1.1 CALM 0 0 0 0 1009.9 1009.6 -
18/05:42am 16.2 16.8 14.2 88 1.1 WSW 4 6 2 3 1010.0 1009.7 -
18/05:30am 16.2 16.3 14.0 87 1.3 SW 6 7 3 4 1009.8 1009.5 -
18/05:00am 16.1 16.2 13.9 87 1.2 SW 6 7 3 4 1009.7 1009.4 -
18/04:45am 16.1 16.0 13.8 86 1.3 SW 7 9 4 5 1009.4 1009.1 -
18/04:30am 16.1 16.0 13.8 86 1.3 WSW 7 9 4 5 1009.5 1009.2 -
18/04:00am 16.1 16.2 13.8 86 1.3 WSW 6 9 3 5 1009.5 1009.2 -
18/03:47am 16.2 16.6 13.7 85 1.4 W 4 7 2 4 1009.5 1009.2 -
18/03:30am 16.2 16.2 13.7 85 1.4 WNW 6 7 3 4 1009.5 1009.2 -
18/03:00am 16.4 16.4 13.5 83 1.6 NNW 6 7 3 4 1010.0 1009.7 0.0
18/02:30am 16.6 16.6 13.5 82 1.7 NNE 6 9 3 5 1010.5 1010.2 -
18/02:00am 16.7 17.7 13.2 80 2.0 CALM 0 7 0 4 1010.4 1010.1 -
18/01:30am 16.7 17.8 13.6 82 1.8 CALM 0 0 0 0 1010.8 1010.5 -
18/01:00am 16.6 17.8 13.7 83 1.6 CALM 0 0 0 0 1011.1 1010.8 -
18/12:30am 16.6 17.6 13.3 81 1.9 CALM 0 0 0 0 1011.3 1011.0 -
18/12:00am 16.6 17.6 13.3 81 1.9 CALM 0 6 0 3 1011.4 1011.1 -
 
Date/Time
EDT
Tmp

°C
App
Tmp
°C
Dew
Point
°C
Rel
Hum
%
Delta-T

°C
Wind Press
QNH
hPa
Press
MSL
hPa
Rain
since
9 am
mm
Dir
 
Spd
km/h
Gust
km/h
Spd
kts
Gust
kts
17/11:30pm 16.5 16.4 13.2 81 1.9 SW 6 7 3 4 1011.3 1011.0 -
17/11:00pm 16.6 15.6 13.3 81 1.9 WSW 11 13 6 7 1011.8 1011.5 -
17/10:30pm 17.7 17.0 11.5 67 3.4 SSE 6 9 3 5 1011.9 1011.6 -
17/10:00pm 17.6 16.8 11.6 68 3.3 ENE 7 13 4 7 1012.0 1011.7 -
17/09:30pm 17.5 16.4 12.0 70 3.0 E 9 15 5 8 1011.7 1011.4 -
17/09:00pm 17.5 16.1 12.2 71 2.9 E 11 22 6 12 1011.4 1011.1 0.0
17/08:30pm 17.7 16.7 12.4 71 2.9 E 9 17 5 9 1011.3 1011.0 -
17/08:00pm 18.3 17.6 12.1 67 3.4 E 7 13 4 7 1010.8 1010.5 -
17/07:30pm 18.5 16.9 11.6 64 3.8 E 11 17 6 9 1010.0 1009.7 -
17/07:00pm 18.7 17.5 11.5 63 4.0 ESE 9 17 5 9 1009.5 1009.2 -
17/06:30pm 19.0 17.5 11.8 63 4.0 SE 11 15 6 8 1009.0 1008.7 -
17/06:00pm 19.1 17.5 11.4 61 4.2 ESE 11 17 6 9 1008.4 1008.1 -
17/05:30pm 19.6 17.6 11.6 60 4.4 SE 13 17 7 9 1008.2 1007.9 -
17/05:00pm 19.8 17.5 11.6 59 4.6 SSE 15 20 8 11 1007.9 1007.6 -
17/04:30pm 19.5 16.9 10.8 57 4.7 SE 15 22 8 12 1008.1 1007.8 -
17/04:00pm 19.8 17.2 10.8 56 4.9 SE 15 26 8 14 1007.9 1007.6 -
17/03:30pm 20.5 17.7 11.4 56 5.0 ESE 17 24 9 13 1007.8 1007.5 -
17/03:00pm 21.3 19.5 12.2 56 5.1 ESE 13 22 7 12 1007.6 1007.3 -
17/02:30pm 21.0 18.6 11.3 54 5.4 SE 15 20 8 11 1007.6 1007.3 -
17/02:00pm 21.7 19.6 11.1 51 5.9 ESE 13 22 7 12 1007.5 1007.2 -
17/01:43pm 22.0 20.0 11.4 51 5.9 SE 13 19 7 10 1007.5 1007.2 -
17/01:30pm 21.9 19.8 11.3 51 5.9 ESE 13 19 7 10 1007.4 1007.1 -
17/01:15pm 22.5 19.8 11.6 50 6.1 E 17 22 9 12 1007.4 1007.1 -
17/01:00pm 21.8 19.9 10.6 49 6.2 E 11 17 6 9 1007.3 1007.0 -
17/11:00am 22.1 20.2 11.8 52 5.8 ESE 13 19 7 10 1007.1 1006.8 0.0
17/10:30am 21.8 20.1 12.6 56 5.2 SSE 13 19 7 10 1007.0 1006.7 0.0
17/10:00am 21.7 19.8 11.7 53 5.6 S 13 19 7 10 1006.7 1006.4 0.0

Latest Capital City Observations: Canberra | Sydney | Melbourne | Brisbane | Adelaide | Perth | Hobart | Darwin

Other Formats:

Comma delimited format used in spreadsheet applications
http://www.bom.gov.au/fwo/IDN60901/IDN60901.94755.axf

JavaScript Object Notation format (JSON) in row-major order
http://www.bom.gov.au/fwo/IDN60901/IDN60901.94755.json